Startpagina
METAR-TAF:

METAR-TAF

Vliegvelden :

Puerto Cabezas, Nicaragua

breedte: 14-03N, lengte: 083-22W, hoogte: 20 m

Actueel weer

Dit bericht is 46 minuten geleden gemaakt, om 13:00 UTC
Wind 4 kt uit het noorden
Temperatuur 27°C
Vochtigheid 89%
Druk 1013 hPa
Zicht: 7000 m
Verspreide wolken op 1600 ft
Verspreide wolken op 10000 ft
Heiigheid

METAR: MNPC 231300Z 36004KT 7000 SCT016 SCT100 27/25 Q1013 HZ

Tijdstip: 07:46 (13:46 UTC)

Verwachting

Dit bericht is 17 uur en het 8 minuten geleden gemaakt, om 20:38 UTC
Verwachting geldig van 23 om 00 UTC tot 23 om 24 UTC
Wind 10 kt uit het oostnoordoosten
Zicht: 7000 m
Verspreide wolken op 1600 ft
Verspreide wolken op 30000 ft
Heiigheid
Tijdelijke
van 23 om 04 UTC tot om UTC
Wind 6 kt uit het oosten
Zicht: 7000 m
Gebroken wolken op 1600 ft

TAF: MNPC 222038Z 2300/2324 06010KT 7000 HZ SCT016 SCT300 TEMPO 2304/ 2310 08006KT 7000 HZ/VCRA BKN016

Waarnemingen en weersverwachtingen van meer dan 4000 vliegvelden (METAR en TAF).

De beschikbare stations zijn de gele en rode punten op de kaart.

Ga met uw muis naar het station om de naam te zien.

Klik dan om waarnemingen en weersverwachtingen te zien.

kaart wijzigen: klik op de groene knoppen met een zwart kruis om in te zoomen, op de groene knop met een streepje om uit te zoomen of op de groene pijlen voor aangrenzende kaarten.


METAR-TAF: